Time;durP1;ratioP1;P1;durP2;ratioP2;P2;SDS_P1;SDS_P2;PMS_P1;PMS_P2;Temp;Humidity;BMP_temperature;BMP_pressure;BME280_temperature;BME280_humidity;BME280_pressure;Samples;Min_cycle;Max_cycle;Signal;HPM_P1;HPM_P2
2023/10/26 00:00:09;;;;;;;4.53;0.70;;;;;;;13.17;98.86;98057.72;6144277;23;20017;-86
2023/10/26 00:02:39;;;;;;;3.30;0.70;;;;;;;13.14;98.84;98048.28;6094708;23;20021;-86
2023/10/26 00:05:07;;;;;;;0.80;0.73;;;;;;;13.15;98.60;98046.44;6146922;23;20017;-87
2023/10/26 00:07:34;;;;;;;2.25;0.60;;;;;;;13.17;98.57;98061.22;6146353;23;20096;-87
2023/10/26 00:10:02;;;;;;;2.92;0.57;;;;;;;13.20;98.60;98052.00;6146180;23;20030;-86
2023/10/26 00:12:28;;;;;;;1.48;0.60;;;;;;;13.21;98.37;98059.00;6120850;23;20028;-87
2023/10/26 00:14:55;;;;;;;1.85;0.80;;;;;;;13.20;98.45;98054.66;6146883;23;20030;-86
2023/10/26 00:17:22;;;;;;;2.20;0.57;;;;;;;13.18;98.02;98067.41;6120431;23;20056;-86
2023/10/26 00:19:49;;;;;;;4.22;0.63;;;;;;;13.18;97.46;98062.88;6147075;23;20337;-87
2023/10/26 00:22:16;;;;;;;0.70;0.70;;;;;;;13.18;97.50;98065.53;6120484;23;20037;-86
2023/10/26 00:24:43;;;;;;;0.63;0.63;;;;;;;13.18;97.74;98068.22;6119722;23;20495;-86
2023/10/26 00:27:10;;;;;;;4.43;0.80;;;;;;;13.18;97.66;98062.06;6095841;23;20017;-86
2023/10/26 00:29:37;;;;;;;2.15;0.95;;;;;;;13.19;97.78;98064.50;6096064;23;20027;-87
2023/10/26 00:32:05;;;;;;;0.60;0.60;;;;;;;13.20;97.67;98068.00;6119971;23;20037;-87
2023/10/26 00:34:32;;;;;;;1.20;0.88;;;;;;;13.19;97.32;98063.69;6146468;23;20032;-86
2023/10/26 00:36:59;;;;;;;1.92;0.60;;;;;;;13.19;97.18;98067.19;6096147;23;20470;-86
2023/10/26 00:39:26;;;;;;;1.10;0.70;;;;;;;13.20;97.11;98070.66;6095845;23;20029;-86
2023/10/26 00:41:53;;;;;;;1.83;0.90;;;;;;;13.18;97.05;98065.53;6120761;23;20112;-86
2023/10/26 00:44:21;;;;;;;0.98;0.77;;;;;;;13.19;96.90;98071.69;6145801;23;20099;-86
2023/10/26 00:46:49;;;;;;;2.80;0.60;;;;;;;13.20;97.31;98071.50;6092553;23;20507;-86
2023/10/26 00:49:16;;;;;;;1.73;0.70;;;;;;;13.19;97.37;98059.19;6145196;23;20025;-86
2023/10/26 00:51:58;;;;;;;0.70;0.65;;;;;;;13.15;96.33;98065.09;6070121;23;20161;-85
2023/10/26 00:54:27;;;;;;;2.03;0.60;;;;;;;13.18;96.88;98070.06;6119358;23;20091;-87
2023/10/26 00:56:54;;;;;;;0.60;0.60;;;;;;;13.16;96.89;98067.56;6120215;23;20104;-86
2023/10/26 00:59:22;;;;;;;0.65;0.60;;;;;;;13.18;96.50;98068.22;6146445;23;20030;-85
2023/10/26 01:01:50;;;;;;;0.70;0.70;;;;;;;13.19;96.50;98072.50;6095377;23;21442;-86
2023/10/26 01:04:17;;;;;;;1.02;0.82;;;;;;;13.21;96.48;98077.66;6095507;23;20447;-85
2023/10/26 01:06:44;;;;;;;2.08;0.70;;;;;;;13.21;96.25;98077.66;6119220;23;20569;-86
2023/10/26 01:09:13;;;;;;;7.82;1.20;;;;;;;13.18;96.26;98068.22;6143299;23;20029;-86
2023/10/26 01:11:41;;;;;;;0.90;0.70;;;;;;;13.17;95.67;98061.22;6119512;23;20474;-86
2023/10/26 01:14:08;;;;;;;1.30;0.70;;;;;;;13.18;95.52;98056.72;6093773;23;20053;-85
2023/10/26 01:16:35;;;;;;;2.95;0.63;;;;;;;13.19;95.42;98066.38;6145185;23;20056;-86
2023/10/26 01:19:03;;;;;;;2.47;0.57;;;;;;;13.18;95.15;98073.53;6118515;23;20033;-86
2023/10/26 01:21:32;;;;;;;1.05;0.50;;;;;;;13.20;95.12;98073.31;6144929;23;20021;-86
2023/10/26 01:23:58;;;;;;;1.25;0.70;;;;;;;13.18;94.93;98067.41;6119070;23;20388;-86
2023/10/26 01:26:26;;;;;;;0.52;0.47;;;;;;;13.16;95.17;98072.09;6142707;23;20093;-86
2023/10/26 01:28:52;;;;;;;2.53;0.60;;;;;;;13.19;94.98;98077.03;6144676;23;20480;-86
2023/10/26 01:31:19;;;;;;;0.50;0.50;;;;;;;13.18;94.79;98070.88;6118394;23;20472;-86
2023/10/26 01:33:46;;;;;;;0.50;0.50;;;;;;;13.17;94.52;98068.41;6095056;23;20025;-86
2023/10/26 01:36:13;;;;;;;2.13;0.60;;;;;;;13.19;94.46;98069.03;6145261;23;20331;-86
2023/10/26 01:38:40;;;;;;;1.83;0.90;;;;;;;13.16;94.16;98067.56;6142938;23;20052;-87
2023/10/26 01:41:07;;;;;;;0.98;0.55;;;;;;;13.18;94.22;98070.88;6119434;23;20569;-86
2023/10/26 01:43:34;;;;;;;5.55;2.20;;;;;;;13.20;94.34;98065.34;6095473;23;20076;-86
2023/10/26 01:46:01;;;;;;;1.58;0.73;;;;;;;13.19;94.42;98058.38;6070247;23;20092;-85
2023/10/26 01:48:27;;;;;;;3.22;0.63;;;;;;;13.18;94.44;98052.22;6119547;23;20343;-86
2023/10/26 01:50:54;;;;;;;1.00;0.73;;;;;;;13.19;94.23;98061.03;6118569;23;20408;-86
2023/10/26 01:53:26;;;;;;;6.55;0.70;;;;;;;13.19;94.04;98055.69;6093353;23;20072;-86
2023/10/26 01:55:52;;;;;;;2.42;0.70;;;;;;;13.19;93.75;98055.69;6120659;23;20540;-85
2023/10/26 01:58:19;;;;;;;1.95;0.70;;;;;;;13.18;93.75;98057.56;6122825;23;20073;-86
2023/10/26 02:00:46;;;;;;;0.70;0.70;;;;;;;13.19;93.71;98059.19;6072396;23;20467;-85
2023/10/26 02:03:13;;;;;;;3.17;0.70;;;;;;;13.17;93.47;98050.56;6143246;23;20025;-85
2023/10/26 02:05:40;;;;;;;3.35;0.80;;;;;;;13.19;93.53;98058.38;6143803;23;20022;-86
2023/10/26 02:08:07;;;;;;;1.83;0.70;;;;;;;13.18;93.56;98054.06;6144903;23;20029;-86
2023/10/26 02:10:34;;;;;;;2.92;0.70;;;;;;;13.19;93.53;98055.69;6143168;23;20033;-87
2023/10/26 02:13:02;;;;;;;1.48;0.93;;;;;;;13.19;93.42;98045.84;6094608;23;20032;-86
2023/10/26 02:15:29;;;;;;;5.55;0.75;;;;;;;13.18;93.55;98052.22;6118576;23;20030;-86
2023/10/26 02:17:56;;;;;;;1.38;0.60;;;;;;;13.19;93.33;98042.38;6119077;23;20657;-86
2023/10/26 02:20:23;;;;;;;0.70;0.60;;;;;;;13.20;92.99;98054.66;6118659;23;20021;-86
2023/10/26 02:22:50;;;;;;;0.60;0.60;;;;;;;13.19;92.88;98048.53;6145246;23;20499;-86
2023/10/26 02:25:17;;;;;;;1.73;0.88;;;;;;;13.18;93.04;98049.56;6143504;23;20029;-86
2023/10/26 02:27:43;;;;;;;0.90;0.60;;;;;;;13.17;92.79;98055.06;6094129;23;20415;-86
2023/10/26 02:30:11;;;;;;;1.50;0.80;;;;;;;13.19;92.86;98058.38;6144402;23;20025;-86
2023/10/26 02:32:39;;;;;;;2.72;0.70;;;;;;;13.18;93.01;98052.22;6118306;23;20401;-85
2023/10/26 02:35:06;;;;;;;1.25;0.88;;;;;;;13.16;93.10;98062.25;6149631;23;20027;-85
2023/10/26 02:37:38;;;;;;;2.10;0.75;;;;;;;13.16;92.94;98056.91;6117538;23;20025;-86
2023/10/26 02:40:05;;;;;;;1.95;0.60;;;;;;;13.15;92.94;98057.94;6092126;23;20021;-86
2023/10/26 02:42:33;;;;;;;0.82;0.75;;;;;;;13.15;92.82;98057.09;6142323;23;20084;-86
2023/10/26 02:45:00;;;;;;;2.42;0.70;;;;;;;13.17;92.91;98061.22;6116329;23;20060;-85
2023/10/26 02:47:27;;;;;;;3.35;0.70;;;;;;;13.16;93.09;98056.09;6143730;23;20021;-86
2023/10/26 02:49:55;;;;;;;1.13;0.70;;;;;;;13.17;92.88;98057.72;6142554;23;20032;-85
2023/10/26 02:52:22;;;;;;;2.28;0.75;;;;;;;13.17;92.94;98065.72;6141899;23;20048;-86
2023/10/26 02:54:49;;;;;;;0.80;0.80;;;;;;;13.15;92.99;98057.09;6093640;23;20483;-86
2023/10/26 02:57:16;;;;;;;0.90;0.60;;;;;;;13.16;93.09;98061.44;6096449;23;20099;-86
2023/10/26 02:59:43;;;;;;;1.95;1.02;;;;;;;13.15;93.14;98065.09;6151860;23;20029;-86
2023/10/26 03:02:10;;;;;;;3.60;0.80;;;;;;;13.15;93.07;98073.09;6069287;23;20464;-86
2023/10/26 03:04:38;;;;;;;4.05;0.85;;;;;;;13.12;93.10;98070.81;6141541;23;20466;-86
2023/10/26 03:07:04;;;;;;;3.65;0.80;;;;;;;13.14;93.25;98069.59;6141740;23;20468;-86
2023/10/26 03:09:31;;;;;;;3.30;0.90;;;;;;;13.14;93.42;98071.47;6142838;23;20036;-86
2023/10/26 03:11:58;;;;;;;1.02;0.90;;;;;;;13.14;93.23;98071.47;6116977;23;20025;-86
2023/10/26 03:14:25;;;;;;;3.45;0.80;;;;;;;13.14;93.34;98071.47;6117924;23;20115;-86
2023/10/26 03:16:52;;;;;;;1.25;0.65;;;;;;;13.13;93.47;98064.50;6143680;23;20412;-86
2023/10/26 03:19:19;;;;;;;3.40;0.60;;;;;;;13.15;93.53;98070.44;6144016;23;20029;-86
2023/10/26 03:21:46;;;;;;;0.70;0.70;;;;;;;13.13;93.44;98062.66;6143158;23;20396;-86
2023/10/26 03:24:13;;;;;;;2.45;0.90;;;;;;;13.15;93.49;98070.44;6144304;23;20030;-86
2023/10/26 03:26:40;;;;;;;2.92;0.90;;;;;;;13.16;93.49;98064.91;6093169;23;20021;-86
2023/10/26 03:29:07;;;;;;;2.78;0.98;;;;;;;13.14;93.54;98063.47;6117811;23;20053;-86
2023/10/26 03:31:36;;;;;;;1.63;0.93;;;;;;;13.14;93.61;98066.13;6117676;23;20025;-87
2023/10/26 03:34:03;;;;;;;1.58;0.70;;;;;;;13.15;93.50;98060.63;6143299;23;20029;-86
2023/10/26 03:36:30;;;;;;;2.80;0.80;;;;;;;13.13;93.58;98065.31;6142957;23;20033;-86
2023/10/26 03:38:56;;;;;;;2.95;1.30;;;;;;;13.14;93.79;98071.47;6144571;23;20355;-85
2023/10/26 03:41:23;;;;;;;2.80;0.90;;;;;;;13.14;93.83;98074.94;6117061;23;20021;-86
2023/10/26 03:43:50;;;;;;;1.33;0.90;;;;;;;13.13;93.76;98067.97;6143251;23;20122;-86
2023/10/26 03:46:17;;;;;;;2.55;0.70;;;;;;;13.15;93.82;98070.44;6093645;23;20112;-86
2023/10/26 03:48:44;;;;;;;3.17;1.10;;;;;;;13.13;93.71;98075.97;6143771;23;20029;-86
2023/10/26 03:51:13;;;;;;;2.45;0.95;;;;;;;13.15;93.77;98079.28;6094102;23;20033;-85
2023/10/26 03:53:40;;;;;;;2.85;1.17;;;;;;;13.12;93.65;98068.97;6093643;23;20381;-86
2023/10/26 03:56:08;;;;;;;4.80;1.08;;;;;;;13.14;93.68;98074.94;6141830;23;20574;-86
2023/10/26 03:58:35;;;;;;;3.83;1.13;;;;;;;13.14;93.47;98074.13;6148963;23;20032;-86
2023/10/26 04:01:02;;;;;;;1.77;1.08;;;;;;;13.14;93.67;98074.94;6116602;23;20053;-86
2023/10/26 04:03:29;;;;;;;0.85;0.85;;;;;;;13.14;93.63;98082.13;6143453;23;20026;-85
2023/10/26 04:05:56;;;;;;;1.80;0.93;;;;;;;13.15;93.26;98083.75;6117812;23;20036;-86
2023/10/26 04:08:23;;;;;;;5.07;1.00;;;;;;;13.13;93.43;98069.81;6117468;23;20037;-85
2023/10/26 04:10:50;;;;;;;4.70;1.00;;;;;;;13.14;93.51;98082.94;6141766;23;20025;-86
2023/10/26 04:13:16;;;;;;;2.65;0.82;;;;;;;13.13;93.41;98080.47;6141775;23;20056;-86
2023/10/26 04:15:43;;;;;;;1.00;0.80;;;;;;;13.12;93.64;98070.81;6143960;23;20053;-86
2023/10/26 04:18:10;;;;;;;2.88;1.00;;;;;;;13.10;93.58;98065.72;6118438;23;20028;-86
2023/10/26 04:20:37;;;;;;;3.08;1.15;;;;;;;13.10;93.90;98073.69;6145404;23;20022;-87
2023/10/26 04:23:04;;;;;;;2.22;1.20;;;;;;;13.10;94.04;98076.38;6094101;23;20058;-86
2023/10/26 04:25:30;;;;;;;4.90;1.10;;;;;;;13.11;94.24;98077.19;6142628;23;20088;-85
2023/10/26 04:28:16;;;;;;;3.63;1.08;;;;;;;13.08;94.32;98070.41;6150682;23;20025;-87
2023/10/26 04:30:44;;;;;;;1.85;1.10;;;;;;;13.10;94.18;98079.03;6122725;23;20331;-86
2023/10/26 04:33:11;;;;;;;3.28;1.48;;;;;;;13.09;94.45;98082.69;6119119;23;20033;-86
2023/10/26 04:35:45;;;;;;;2.50;1.52;;;;;;;13.09;94.18;98079.22;6146295;23;20025;-86
2023/10/26 04:38:12;;;;;;;3.17;1.48;;;;;;;13.08;94.52;98075.72;6070754;23;20104;-86
2023/10/26 04:40:40;;;;;;;4.82;1.27;;;;;;;13.08;94.57;98077.56;6096507;23;20025;-84
2023/10/26 04:43:07;;;;;;;4.25;1.00;;;;;;;13.07;94.39;98083.91;6149703;23;20029;-86
2023/10/26 04:45:34;;;;;;;8.82;1.48;;;;;;;13.06;94.73;98076.94;6094437;23;20026;-86
2023/10/26 04:48:02;;;;;;;5.63;1.40;;;;;;;13.09;94.73;98082.69;6143997;23;20389;-86
2023/10/26 04:50:30;;;;;;;2.00;1.10;;;;;;;13.05;95.03;98081.44;6145151;23;20029;-86
2023/10/26 04:52:58;;;;;;;4.00;1.50;;;;;;;13.07;95.18;98075.91;6093993;23;20534;-86
2023/10/26 04:55:33;;;;;;;2.72;1.25;;;;;;;13.06;95.26;98068.94;6119595;23;20032;-86
2023/10/26 04:58:01;;;;;;;2.35;1.40;;;;;;;13.01;95.63;98067.69;6145761;23;20033;-87
2023/10/26 05:00:28;;;;;;;1.45;1.08;;;;;;;13.01;96.30;98061.53;6118832;23;20029;-87
2023/10/26 05:02:55;;;;;;;6.05;1.35;;;;;;;13.01;96.95;98061.53;6119571;23;20049;-86
2023/10/26 05:05:22;;;;;;;5.15;1.10;;;;;;;12.99;97.29;98067.03;6126021;23;20036;-86
2023/10/26 05:07:49;;;;;;;3.67;1.20;;;;;;;13.00;97.87;98078.53;6119023;23;20145;-86
2023/10/26 05:10:16;;;;;;;2.58;1.38;;;;;;;12.96;98.11;98067.44;6119218;23;20031;-87
2023/10/26 05:12:43;;;;;;;5.22;1.00;;;;;;;12.99;98.37;98074.22;6119053;23;20021;-87
2023/10/26 05:15:09;;;;;;;2.83;1.10;;;;;;;12.97;98.77;98082.41;6119416;23;20112;-85
2023/10/26 05:17:37;;;;;;;3.10;1.45;;;;;;;12.97;99.14;98073.59;6143971;23;20025;-86
2023/10/26 05:20:05;;;;;;;5.13;0.90;;;;;;;12.96;99.08;98072.78;6146162;23;20456;-86
2023/10/26 05:22:35;;;;;;;3.30;1.25;;;;;;;12.96;99.48;98075.44;6116456;23;20045;-86
2023/10/26 05:25:05;;;;;;;5.65;1.30;;;;;;;12.96;99.27;98072.78;6140650;23;20104;-86
2023/10/26 05:27:32;;;;;;;2.83;1.10;;;;;;;12.96;98.94;98074.63;6077570;23;20482;-86
2023/10/26 05:30:04;;;;;;;2.50;0.80;;;;;;;12.90;99.05;98070.91;6088493;23;20348;-87
2023/10/26 05:32:31;;;;;;;4.97;1.05;;;;;;;12.92;99.73;98073.34;6092920;23;20134;-87
2023/10/26 05:34:58;;;;;;;5.03;1.73;;;;;;;12.92;99.91;98070.69;6114456;23;20031;-87
2023/10/26 05:37:25;;;;;;;4.43;1.42;;;;;;;12.94;100.00;98072.13;6114606;23;20029;-87
2023/10/26 05:39:52;;;;;;;3.85;1.92;;;;;;;12.90;100.00;98065.56;6115536;23;20065;-87
2023/10/26 05:42:19;;;;;;;2.58;1.40;;;;;;;12.90;100.00;98067.38;6090396;23;20396;-87
2023/10/26 05:44:45;;;;;;;1.90;1.10;;;;;;;12.89;100.00;98063.91;6090266;23;20025;-87
2023/10/26 05:47:12;;;;;;;1.10;0.82;;;;;;;12.91;100.00;98066.38;6066869;23;20092;-88
2023/10/26 05:49:39;;;;;;;1.65;0.70;;;;;;;12.91;100.00;98061.06;6114839;23;20024;-87
2023/10/26 05:52:06;;;;;;;2.08;1.20;;;;;;;12.91;100.00;98051.22;6090183;23;20025;-86
2023/10/26 05:54:32;;;;;;;2.72;1.80;;;;;;;12.90;100.00;98057.56;6114906;23;20356;-87
2023/10/26 05:57:00;;;;;;;1.73;1.00;;;;;;;12.89;100.00;98066.56;6139541;23;20087;-87
2023/10/26 05:59:27;;;;;;;4.93;1.17;;;;;;;12.89;100.00;98063.91;6141554;23;20188;-88
2023/10/26 06:01:54;;;;;;;3.33;1.05;;;;;;;12.90;100.00;98062.06;6091253;23;20025;-87
2023/10/26 06:04:20;;;;;;;3.20;1.33;;;;;;;12.90;100.00;98051.41;6068552;23;20029;-87
2023/10/26 06:06:47;;;;;;;1.63;1.08;;;;;;;12.89;100.00;98053.25;6093043;23;20028;-88
2023/10/26 06:09:15;;;;;;;3.83;1.35;;;;;;;12.88;100.00;98048.13;6116663;23;20021;-87
2023/10/26 06:11:42;;;;;;;3.80;1.10;;;;;;;12.86;100.00;98044.84;6068160;23;20025;-87
2023/10/26 06:14:09;;;;;;;1.98;0.90;;;;;;;12.88;100.00;98048.94;6093491;23;20503;-86
2023/10/26 06:16:37;;;;;;;3.25;1.17;;;;;;;12.85;100.00;98054.66;6092875;23;20347;-88
2023/10/26 06:19:03;;;;;;;3.90;1.13;;;;;;;12.86;100.00;98052.81;6116842;23;20021;-86
2023/10/26 06:21:32;;;;;;;4.40;1.73;;;;;;;12.82;100.00;98063.03;6117931;23;20424;-87
2023/10/26 06:23:59;;;;;;;2.50;1.75;;;;;;;12.83;100.00;98067.34;6092680;23;20112;-88
2023/10/26 06:26:26;;;;;;;4.25;1.42;;;;;;;12.86;100.00;98076.78;6094298;23;20475;-87
2023/10/26 06:28:53;;;;;;;7.88;1.67;;;;;;;12.82;100.00;98077.19;6093566;23;20036;-87
2023/10/26 06:31:20;;;;;;;5.07;1.70;;;;;;;12.82;100.00;98079.84;6144655;23;20033;-86
2023/10/26 06:33:47;;;;;;;8.50;2.22;;;;;;;12.84;100.00;98081.50;6143125;23;20432;-87
2023/10/26 06:36:14;;;;;;;4.47;1.70;;;;;;;12.82;100.00;98077.19;6114737;23;20397;-87
2023/10/26 06:38:41;;;;;;;5.18;1.88;;;;;;;12.83;100.00;98086.00;6113387;23;20419;-87
2023/10/26 06:41:09;;;;;;;4.30;1.70;;;;;;;12.81;100.00;98085.38;6090082;23;20052;-88
2023/10/26 06:43:45;;;;;;;2.63;1.60;;;;;;;12.78;100.00;98091.09;6070109;23;20026;-87
2023/10/26 06:46:16;;;;;;;10.52;1.88;;;;;;;12.82;100.00;98095.00;6048654;23;20025;-87
2023/10/26 06:48:42;;;;;;;6.53;2.15;;;;;;;12.85;100.00;98097.28;6115114;23;20025;-86
2023/10/26 06:51:09;;;;;;;5.53;1.90;;;;;;;12.85;100.00;98086.63;6143865;23;20462;-87
2023/10/26 06:53:36;;;;;;;7.63;2.47;;;;;;;12.86;100.00;98082.94;6143133;23;20028;-87
2023/10/26 06:56:12;;;;;;;8.43;2.83;;;;;;;12.84;100.00;98079.66;6117726;23;20021;-87
2023/10/26 06:58:39;;;;;;;5.45;2.50;;;;;;;12.87;100.00;98086.44;6093182;23;20025;-87
2023/10/26 07:01:07;;;;;;;6.97;2.53;;;;;;;12.89;100.00;98087.88;6116200;23;20052;-87
2023/10/26 07:03:47;;;;;;;5.05;2.60;;;;;;;12.88;100.00;98077.44;6096782;23;20459;-87
2023/10/26 07:06:14;;;;;;;8.57;2.25;;;;;;;12.88;100.00;98080.91;6121492;23;20029;-87
2023/10/26 07:08:41;;;;;;;8.85;2.90;;;;;;;12.92;100.00;98081.34;6118299;23;20190;-87
2023/10/26 07:11:08;;;;;;;6.88;2.47;;;;;;;12.92;100.00;98086.66;6094800;23;20025;-86
2023/10/26 07:13:35;;;;;;;5.45;1.88;;;;;;;12.94;100.00;98085.47;6145144;23;20025;-87
2023/10/26 07:16:03;;;;;;;8.10;1.83;;;;;;;12.93;100.00;98091.00;6144069;23;20021;-87
2023/10/26 07:18:30;;;;;;;7.80;2.00;;;;;;;12.95;100.00;98094.25;6118732;23;20029;-87
2023/10/26 07:20:57;;;;;;;3.72;1.90;;;;;;;12.93;99.82;98083.81;6094007;23;20083;-87
2023/10/26 07:23:25;;;;;;;6.07;2.45;;;;;;;12.92;99.82;98073.34;6146150;23;20033;-87
2023/10/26 07:25:52;;;;;;;4.78;2.08;;;;;;;12.94;100.00;98079.31;6119434;23;20089;-87
2023/10/26 07:28:18;;;;;;;2.90;1.75;;;;;;;12.93;100.00;98083.81;6113604;23;20040;-87
2023/10/26 12:31:21;;;;;;;3.45;1.50;;;;;;;13.54;100.00;97994.38;6145100;23;20028;-87
2023/10/26 12:37:37;;;;;;;2.38;1.73;;;;;;;13.58;100.00;97993.75;6118390;23;20068;-87
2023/10/26 12:40:08;;;;;;;2.90;1.60;;;;;;;13.60;100.00;97988.25;6096225;23;20032;-87
2023/10/26 12:42:39;;;;;;;4.78;2.33;;;;;;;13.61;100.00;97980.06;6120592;23;20415;-87
2023/10/26 12:45:06;;;;;;;4.32;2.15;;;;;;;13.65;100.00;97978.59;6143946;23;20104;-87
2023/10/26 12:47:33;;;;;;;3.33;2.10;;;;;;;13.66;100.00;97974.09;6094979;23;20018;-87
2023/10/26 12:50:00;;;;;;;5.53;2.15;;;;;;;13.66;100.00;97974.09;6146516;23;20025;-87
2023/10/26 12:52:27;;;;;;;5.32;2.50;;;;;;;13.69;100.00;97968.38;6121573;23;20405;-90
2023/10/26 12:54:53;;;;;;;4.18;2.90;;;;;;;13.71;100.00;97960.16;6122185;23;20033;-87
2023/10/26 12:57:20;;;;;;;3.45;2.45;;;;;;;13.74;100.00;97949.06;6147982;23;20076;-87
2023/10/26 12:59:47;;;;;;;4.10;2.33;;;;;;;13.76;100.00;97953.19;6144345;23;20072;-87
2023/10/26 13:02:14;;;;;;;6.70;1.90;;;;;;;13.82;100.00;97954.25;6121170;23;20032;-87
2023/10/26 13:04:40;;;;;;;2.35;1.55;;;;;;;13.82;100.00;97938.25;6146307;23;20028;-88
2023/10/26 13:07:07;;;;;;;6.55;1.73;;;;;;;13.83;100.00;97943.34;6146761;23;20033;-86
2023/10/26 13:09:35;;;;;;;2.58;1.50;;;;;;;13.87;100.00;97949.13;6146073;23;20539;-87
2023/10/26 13:12:02;;;;;;;4.22;1.65;;;;;;;13.87;100.00;97949.94;6147182;23;20041;-87
2023/10/26 13:14:29;;;;;;;2.25;1.25;;;;;;;13.88;100.00;97946.25;6122264;23;20025;-86
2023/10/26 13:16:55;;;;;;;2.78;1.48;;;;;;;13.89;100.00;97952.38;6120801;23;20029;-87
2023/10/26 13:19:24;;;;;;;3.45;1.75;;;;;;;13.85;100.00;97951.16;6117620;23;20032;-87
2023/10/26 13:21:51;;;;;;;2.80;2.03;;;;;;;13.84;100.00;97952.19;6144964;23;20577;-87
2023/10/26 13:24:18;;;;;;;2.50;1.90;;;;;;;13.81;100.00;97937.41;6146921;23;20017;-87
2023/10/26 13:26:45;;;;;;;8.80;1.80;;;;;;;13.80;100.00;97926.94;6120443;23;20324;-86
2023/10/26 13:29:12;;;;;;;5.05;1.75;;;;;;;13.83;100.00;97924.69;6117554;23;20499;-88
2023/10/26 13:31:39;;;;;;;2.72;1.73;;;;;;;13.83;100.00;97922.00;6120261;23;20330;-88
2023/10/26 13:34:07;;;;;;;2.83;2.10;;;;;;;13.84;100.00;97934.34;6139949;23;20045;-88
2023/10/26 13:36:34;;;;;;;3.95;2.20;;;;;;;13.82;100.00;97933.72;6132761;23;20032;-88
2023/10/26 13:39:04;;;;;;;7.28;3.70;;;;;;;13.81;100.00;97932.06;6033803;23;20126;-87
2023/10/26 13:41:32;;;;;;;9.05;3.90;;;;;;;13.78;100.00;97929.81;6028330;23;20093;-87
2023/10/26 13:44:00;;;;;;;5.00;3.03;;;;;;;13.79;100.00;97938.63;6015666;23;20022;-87
2023/10/26 13:46:28;;;;;;;8.30;3.20;;;;;;;13.79;100.00;97925.28;6037220;23;20037;-87
2023/10/26 13:48:55;;;;;;;8.82;2.55;;;;;;;13.76;100.00;97931.03;6116230;23;20025;-88
2023/10/26 13:51:22;;;;;;;11.80;2.58;;;;;;;13.78;100.00;97923.66;6143784;23;20068;-88
2023/10/26 13:53:49;;;;;;;7.40;2.60;;;;;;;13.76;100.00;97915.03;6071956;23;20057;-87
2023/10/26 13:56:20;;;;;;;5.15;2.42;;;;;;;13.74;100.00;97911.72;6070812;23;20779;-88
2023/10/26 13:58:56;;;;;;;4.53;1.95;;;;;;;13.76;100.00;97918.50;6085072;23;20064;-88
2023/10/26 14:01:27;;;;;;;2.67;2.13;;;;;;;13.74;100.00;97919.75;6018731;23;20017;-87
2023/10/26 14:03:58;;;;;;;;;;;;;;;13.62;100.00;97916.88;6015565;23;20419;-87
2023/10/26 14:06:47;;;;;;;4.43;2.22;;;;;;;13.68;100.00;97916.84;6010753;23;19921;-87
2023/10/26 14:09:30;;;;;;;6.82;2.22;;;;;;;13.63;100.00;97905.97;6019588;23;20022;-87
2023/10/26 14:12:15;;;;;;;4.32;2.00;;;;;;;13.63;100.00;97903.31;6048044;23;20045;-87
2023/10/26 14:14:48;;;;;;;5.03;2.25;;;;;;;13.66;100.00;97902.09;5986519;23;20385;-88
2023/10/26 14:17:40;;;;;;;4.50;2.20;;;;;;;13.62;100.00;97896.34;5982062;23;20026;-87
2023/10/26 14:20:20;;;;;;;4.40;2.30;;;;;;;13.62;100.00;97904.34;6010004;23;20017;-87
2023/10/26 14:23:03;;;;;;;5.53;2.58;;;;;;;13.63;100.00;97908.63;5981317;23;20050;-87
2023/10/26 14:25:47;;;;;;;5.82;3.85;;;;;;;13.61;100.00;97893.88;6027478;23;20028;-87
2023/10/26 14:28:24;;;;;;;;;;;;;;;13.54;100.00;97891.22;6098013;23;20052;-86
2023/10/26 14:30:51;;;;;;;8.60;5.00;;;;;;;13.58;100.00;97884.44;6106210;23;19921;-88
2023/10/26 14:33:22;;;;;;;12.35;5.80;;;;;;;13.62;100.00;97888.34;6033471;23;20440;-88
2023/10/26 14:35:52;;;;;;;17.02;7.47;;;;;;;13.65;100.00;97889.78;6041907;23;20471;-87
2023/10/26 14:38:19;;;;;;;11.60;5.40;;;;;;;13.63;100.00;97889.97;6119577;23;20021;-87
2023/10/26 14:40:47;;;;;;;6.80;3.55;;;;;;;13.65;100.00;97884.44;6145702;23;20028;-86
2023/10/26 14:43:14;;;;;;;9.57;4.18;;;;;;;13.63;100.00;97879.31;6120781;23;20021;-86
2023/10/26 14:45:41;;;;;;;10.23;5.75;;;;;;;13.65;100.00;97889.78;6143984;23;20025;-87
2023/10/26 14:48:07;;;;;;;11.00;4.93;;;;;;;13.64;100.00;97880.97;6145796;23;20067;-87
2023/10/26 14:50:34;;;;;;;10.73;4.10;;;;;;;13.66;100.00;97883.41;6146803;23;20456;-87
2023/10/26 14:53:01;;;;;;;6.32;3.28;;;;;;;13.64;100.00;97878.31;6145523;23;20031;-87
2023/10/26 14:55:28;;;;;;;6.50;2.83;;;;;;;13.62;100.00;97867.00;6144062;23;20029;-87
2023/10/26 14:57:55;;;;;;;4.68;2.60;;;;;;;13.64;100.00;97866.81;6119427;23;20495;-86
2023/10/26 15:00:22;;;;;;;9.05;2.55;;;;;;;13.61;100.00;97857.38;6144009;23;20022;-86
2023/10/26 15:02:49;;;;;;;4.18;2.50;;;;;;;13.64;100.00;97856.97;6120366;23;20096;-88
2023/10/26 15:05:16;;;;;;;9.05;4.68;;;;;;;13.66;100.00;97857.59;6142755;23;20452;-87
2023/10/26 15:07:43;;;;;;;10.48;6.30;;;;;;;13.65;100.00;97860.44;6118707;23;20049;-87
2023/10/26 15:10:10;;;;;;;12.30;6.60;;;;;;;13.66;100.00;97862.06;6118627;23;20028;-87
2023/10/26 15:12:51;;;;;;;12.82;5.22;;;;;;;13.65;100.00;97869.25;6144388;23;20471;-87
2023/10/26 15:15:18;;;;;;;5.38;2.83;;;;;;;13.68;100.00;97876.03;6143650;23;20045;-86
2023/10/26 15:17:45;;;;;;;4.53;4.10;;;;;;;13.65;100.00;97876.44;6141621;23;20553;-87
2023/10/26 15:20:12;;;;;;;5.95;2.30;;;;;;;13.64;100.00;97888.16;6144009;23;20025;-87
2023/10/26 15:22:39;;;;;;;3.80;2.33;;;;;;;13.65;100.00;97887.94;6143357;23;20412;-87
2023/10/26 15:25:06;;;;;;;6.78;2.00;;;;;;;13.66;100.00;97881.59;6118105;23;20032;-87
2023/10/26 15:27:33;;;;;;;6.45;2.35;;;;;;;13.67;100.00;97877.06;6120784;23;20442;-87
2023/10/26 15:30:00;;;;;;;5.43;2.25;;;;;;;13.68;100.00;97884.03;6150395;23;20028;-87
2023/10/26 15:32:29;;;;;;;10.50;5.32;;;;;;;13.67;100.00;97871.75;6148037;23;20488;-87
2023/10/26 15:34:55;;;;;;;6.80;3.88;;;;;;;13.68;100.00;97876.84;6143423;23;20084;-87
2023/10/26 15:37:23;;;;;;;8.65;3.70;;;;;;;13.65;100.00;97874.59;6119304;23;20052;-87
2023/10/26 15:39:53;;;;;;;3.88;2.30;;;;;;;13.64;100.00;97875.63;6146798;23;20085;-87
2023/10/26 15:42:20;;;;;;;6.15;2.20;;;;;;;13.66;100.00;97875.41;6145647;23;20026;-87
2023/10/26 15:44:51;;;;;;;4.75;2.00;;;;;;;13.66;100.00;97875.41;6139182;23;20033;-87
2023/10/26 15:47:20;;;;;;;6.63;1.95;;;;;;;13.63;100.00;97870.50;6066255;23;20028;-88
2023/10/26 15:49:48;;;;;;;3.97;2.10;;;;;;;13.66;100.00;97872.75;6113166;23;20025;-87
2023/10/26 15:52:16;;;;;;;3.90;1.95;;;;;;;13.63;100.00;97868.63;6114348;23;20025;-87
2023/10/26 15:54:43;;;;;;;5.65;2.40;;;;;;;13.64;100.00;97883.63;6140002;23;20084;-87
2023/10/26 15:57:10;;;;;;;5.97;2.70;;;;;;;13.63;100.00;97883.81;6090557;23;20074;-88
2023/10/26 15:59:37;;;;;;;4.95;2.95;;;;;;;13.63;100.00;97891.81;6093522;23;20033;-87
2023/10/26 16:02:04;;;;;;;6.88;2.75;;;;;;;13.64;100.00;97901.50;6092162;23;20030;-88
2023/10/26 16:04:31;;;;;;;9.30;4.00;;;;;;;13.63;100.00;97892.63;6066273;23;20025;-88
2023/10/26 16:06:58;;;;;;;12.32;4.97;;;;;;;13.62;100.00;97898.19;6114508;23;20029;-87
2023/10/26 16:09:29;;;;;;;12.77;4.97;;;;;;;13.60;100.00;97898.38;6090700;23;20460;-87
2023/10/26 16:11:56;;;;;;;15.30;5.38;;;;;;;13.62;100.00;97899.00;6089412;23;20029;-87
2023/10/26 16:14:23;;;;;;;12.95;5.55;;;;;;;13.62;100.00;97891.00;6141898;23;20057;-87
2023/10/26 16:16:50;;;;;;;15.65;8.25;;;;;;;13.61;100.00;97889.38;6113885;23;20021;-86
2023/10/26 16:19:17;;;;;;;14.73;8.63;;;;;;;13.61;100.00;97889.38;6090402;23;20057;-87
2023/10/26 16:21:44;;;;;;;17.35;10.20;;;;;;;13.60;100.00;97889.56;6089073;23;20045;-87
2023/10/26 16:24:12;;;;;;;20.38;10.07;;;;;;;13.61;100.00;97888.53;6090886;23;20122;-87
2023/10/26 16:26:40;;;;;;;43.15;21.77;;;;;;;13.61;100.00;97892.03;6142780;23;20128;-87
2023/10/26 16:29:07;;;;;;;33.60;18.75;;;;;;;13.60;100.00;97887.72;6143322;23;20025;-87
2023/10/26 16:31:35;;;;;;;25.02;15.00;;;;;;;13.59;100.00;97890.59;6092860;23;20044;-88
2023/10/26 16:34:02;;;;;;;26.45;16.27;;;;;;;13.57;100.00;97887.31;6122855;23;20367;-86
2023/10/26 16:36:29;;;;;;;23.08;14.57;;;;;;;13.57;100.00;97890.78;6117414;23;20033;-86